KVPC 170353Z AUTO 00000KT 10SM CLR 23/17 A3003 RMK AO2 SLP153 T02280167